createdAt,value
2023-05-15T00:11:55.439Z,10.80
2023-05-15T00:31:55.396Z,10.64
2023-05-15T00:51:55.408Z,10.56
2023-05-15T01:11:55.465Z,10.57
2023-05-15T01:31:55.395Z,10.48
2023-05-15T01:51:55.390Z,10.30
2023-05-15T02:11:55.362Z,10.13
2023-05-15T02:31:55.368Z,10.28
2023-05-15T02:51:55.358Z,10.35
2023-05-15T03:11:55.331Z,10.45
2023-05-15T03:31:55.328Z,10.47
2023-05-15T03:51:55.368Z,10.51
2023-05-15T04:11:55.320Z,10.58
2023-05-15T04:31:55.309Z,10.78
2023-05-15T04:51:55.380Z,10.92
2023-05-15T05:11:55.328Z,10.99
2023-05-15T05:31:55.213Z,11.11
2023-05-15T05:51:55.300Z,11.06
2023-05-15T06:11:55.255Z,11.19
2023-05-15T06:31:55.212Z,11.47
2023-05-15T06:51:55.419Z,11.74
2023-05-15T07:11:55.395Z,12.07
2023-05-15T07:31:55.223Z,12.66
2023-05-15T07:51:55.217Z,13.41
2023-05-15T08:11:55.090Z,14.27
2023-05-15T08:31:55.094Z,14.54
2023-05-15T08:51:55.178Z,15.28
2023-05-15T09:11:54.987Z,16.06
2023-05-15T09:31:55.079Z,17.45
2023-05-15T09:51:55.112Z,18.35
2023-05-15T10:11:55.021Z,19.39
2023-05-15T10:31:54.892Z,18.84
2023-05-15T10:51:55.035Z,17.65
2023-05-15T11:11:54.883Z,18.63
2023-05-15T11:31:54.982Z,19.76
2023-05-15T11:51:54.792Z,13.46
2023-05-15T12:11:54.787Z,12.14
2023-05-15T12:31:54.798Z,12.86
2023-05-15T12:51:54.803Z,13.51
2023-05-15T13:11:54.818Z,13.83
2023-05-15T13:31:54.786Z,14.04
2023-05-15T13:51:54.703Z,14.76
2023-05-15T14:11:54.716Z,15.87
2023-05-15T14:31:54.614Z,16.64
2023-05-15T14:51:54.607Z,15.65
2023-05-15T15:11:54.633Z,15.09
2023-05-15T15:31:54.620Z,14.49
2023-05-15T15:51:54.537Z,14.56
2023-05-15T16:11:54.521Z,14.47
2023-05-15T16:31:54.532Z,14.57
2023-05-15T16:51:54.547Z,14.15
2023-05-15T17:11:54.441Z,14.00
2023-05-15T17:31:54.433Z,13.76
2023-05-15T17:51:54.454Z,13.67
2023-05-15T18:11:54.468Z,13.44
2023-05-15T18:31:54.461Z,13.09
2023-05-15T18:51:54.367Z,12.86
2023-05-15T19:11:54.390Z,12.71
2023-05-15T19:31:54.357Z,12.57
2023-05-15T19:51:54.375Z,12.42
2023-05-15T20:11:54.355Z,12.21
2023-05-15T20:31:54.259Z,11.80
2023-05-15T20:51:54.246Z,11.88
2023-05-15T21:11:54.262Z,12.13
2023-05-15T21:31:54.261Z,12.07
2023-05-15T21:51:54.249Z,11.92
2023-05-15T22:11:54.248Z,11.97
2023-05-15T22:31:54.336Z,11.97
2023-05-15T22:51:54.372Z,11.98
2023-05-15T23:11:54.286Z,11.93
2023-05-15T23:31:54.195Z,11.86
2023-05-15T23:51:54.092Z,11.82
